Terminal Aerodrome Forecast
Issued by NWS

Home | Current Version | Previous Version | Text Only | Print | Product List | Glossary On
Versions: 1 2 3 4 5 6 7 8 9 10 11 12 13 14 15 16 17 18
000
FTUS46 KLOX 231500 AAC
TAFPRB
TAF AMD
KPRB 231500Z 2315/2412 VRB03KT 1/4SM FG VV001
     FM231630 VRB03KT P6SM SKC
     FM232100 09008KT P6SM SKC
     FM240400 VRB03KT P6SM SKC=

USA.gov is the U.S. government's official web portal to all federal, state and local government web resources and services.